createdAt,value
2017-10-04T00:01:37.188Z,101647.94
2017-10-04T00:04:12.010Z,101649.08
2017-10-04T00:06:46.797Z,101651.22
2017-10-04T00:09:22.358Z,101654.55
2017-10-04T00:11:56.978Z,101652.95
2017-10-04T00:14:31.638Z,101655.08
2017-10-04T00:17:06.301Z,101648.88
2017-10-04T00:19:40.960Z,101661.69
2017-10-04T00:22:15.730Z,101649.30
2017-10-04T00:24:52.074Z,101655.73
2017-10-04T00:27:26.694Z,101655.66
2017-10-04T00:30:01.297Z,101654.69
2017-10-04T00:32:35.952Z,101648.81
2017-10-04T00:35:10.303Z,101650.63
2017-10-04T00:37:45.358Z,101645.01
2017-10-04T00:40:19.964Z,101647.55
2017-10-04T00:42:55.610Z,101638.47
2017-10-04T00:45:30.162Z,101640.97
2017-10-04T00:48:04.794Z,101645.23
2017-10-04T00:50:39.570Z,101643.20
2017-10-04T00:53:14.227Z,101640.98
2017-10-04T00:55:48.510Z,101635.16
2017-10-04T00:58:23.215Z,101632.95
2017-10-04T01:00:58.135Z,101627.05
2017-10-04T01:03:33.016Z,101626.73
2017-10-04T01:06:07.571Z,101624.94
2017-10-04T01:08:42.154Z,101621.13
2017-10-04T01:11:16.462Z,101622.22
2017-10-04T01:13:51.430Z,101623.01
2017-10-04T01:16:26.967Z,101611.50
2017-10-04T01:19:01.265Z,101617.40
2017-10-04T01:21:35.941Z,101611.03
2017-10-04T01:24:11.037Z,101606.01
2017-10-04T01:26:45.614Z,101610.27
2017-10-04T01:29:20.397Z,101605.19
2017-10-04T01:31:55.253Z,101599.47
2017-10-04T01:34:29.905Z,101608.92
2017-10-04T01:37:05.473Z,101600.49
2017-10-04T01:39:40.058Z,101607.24
2017-10-04T01:42:14.670Z,101607.39
2017-10-04T01:44:49.293Z,101594.59
2017-10-04T01:47:23.922Z,101610.00
2017-10-04T01:49:58.506Z,101604.37
2017-10-04T01:52:33.104Z,101598.73
2017-10-04T01:55:07.762Z,101600.93
2017-10-04T01:57:42.492Z,101602.61
2017-10-04T02:00:16.938Z,101603.16
2017-10-04T02:02:52.602Z,101605.34
2017-10-04T02:05:27.218Z,101607.22
2017-10-04T02:08:02.993Z,101611.62
2017-10-04T02:10:37.602Z,101619.22
2017-10-04T02:13:12.270Z,101617.55
2017-10-04T02:15:46.906Z,101613.44
2017-10-04T02:18:21.739Z,101612.70
2017-10-04T02:20:56.385Z,101614.80
2017-10-04T02:23:32.154Z,101607.09
2017-10-04T02:26:06.829Z,101596.41
2017-10-04T02:28:42.436Z,101597.32
2017-10-04T02:31:19.161Z,101595.29
2017-10-04T02:33:54.721Z,101596.91
2017-10-04T02:36:29.342Z,101597.88
2017-10-04T02:39:03.401Z,101599.77
2017-10-04T02:41:38.546Z,101594.41
2017-10-04T02:44:13.191Z,101603.28
2017-10-04T02:46:48.618Z,101593.71
2017-10-04T02:49:23.362Z,101585.28
2017-10-04T02:51:57.939Z,101581.34
2017-10-04T02:54:33.441Z,101587.48
2017-10-04T02:57:08.113Z,101581.31
2017-10-04T02:59:42.826Z,101581.58
2017-10-04T03:02:17.569Z,101569.87
2017-10-04T03:04:52.406Z,101565.64
2017-10-04T03:07:27.050Z,101561.20
2017-10-04T03:10:01.706Z,101564.61
2017-10-04T03:12:36.329Z,101563.27
2017-10-04T03:15:11.013Z,101561.09
2017-10-04T03:17:45.673Z,101556.63
2017-10-04T03:20:20.242Z,101564.03
2017-10-04T03:22:54.922Z,101565.12
2017-10-04T03:25:29.521Z,101561.27
2017-10-04T03:28:04.193Z,101569.25
2017-10-04T03:30:38.802Z,101562.56
2017-10-04T03:33:13.461Z,101556.63
2017-10-04T03:35:48.262Z,101551.52
2017-10-04T03:38:22.921Z,101544.58
2017-10-04T03:40:57.649Z,101540.62
2017-10-04T03:43:32.349Z,101536.42
2017-10-04T03:46:08.114Z,101522.09
2017-10-04T03:48:42.737Z,101530.14
2017-10-04T03:51:17.537Z,101522.97
2017-10-04T03:53:51.981Z,101517.16
2017-10-04T03:56:26.737Z,101517.03
2017-10-04T03:59:01.417Z,101511.17
2017-10-04T04:01:36.166Z,101516.70
2017-10-04T04:04:10.766Z,101516.48
2017-10-04T04:06:45.539Z,101510.98
2017-10-04T04:09:19.981Z,101512.39
2017-10-04T04:11:54.625Z,101512.47
2017-10-04T04:14:29.290Z,101510.20
2017-10-04T04:17:04.037Z,101504.86
2017-10-04T04:19:38.625Z,101510.39
2017-10-04T04:22:13.238Z,101504.37
2017-10-04T04:24:47.957Z,101510.59
2017-10-04T04:27:22.550Z,101510.77
2017-10-04T04:29:57.389Z,101506.06
2017-10-04T04:32:31.999Z,101506.27
2017-10-04T04:35:06.622Z,101502.89
2017-10-04T04:37:40.688Z,101499.34
2017-10-04T04:40:15.674Z,101494.20
2017-10-04T04:42:51.597Z,101497.09
2017-10-04T04:45:26.754Z,101489.52
2017-10-04T04:48:01.458Z,101485.77
2017-10-04T04:50:36.110Z,101484.48
2017-10-04T04:53:10.700Z,101474.72
2017-10-04T04:55:45.338Z,101474.46
2017-10-04T04:58:20.243Z,101479.56
2017-10-04T05:00:55.017Z,101471.84
2017-10-04T05:03:29.602Z,101472.52
2017-10-04T05:06:04.178Z,101470.72
2017-10-04T05:08:39.002Z,101473.55
2017-10-04T05:11:13.978Z,101481.08
2017-10-04T05:13:48.467Z,101462.17
2017-10-04T05:16:23.114Z,101457.80
2017-10-04T05:18:58.777Z,101457.21
2017-10-04T05:21:33.402Z,101455.44
2017-10-04T05:24:08.201Z,101460.76
2017-10-04T05:26:42.930Z,101454.41
2017-10-04T05:29:17.569Z,101459.61
2017-10-04T05:31:52.233Z,101460.11
2017-10-04T05:34:27.026Z,101466.56
2017-10-04T05:37:01.717Z,101461.13
2017-10-04T05:39:36.693Z,101462.26
2017-10-04T05:42:11.101Z,101465.13
2017-10-04T05:44:45.857Z,101471.43
2017-10-04T05:47:20.577Z,101468.41
2017-10-04T05:49:55.391Z,101473.36
2017-10-04T05:52:31.050Z,101469.98
2017-10-04T05:55:05.777Z,101473.63
2017-10-04T05:57:40.212Z,101480.05
2017-10-04T06:00:14.951Z,101472.14
2017-10-04T06:02:49.778Z,101472.33
2017-10-04T06:05:24.518Z,101465.61
2017-10-04T06:07:59.078Z,101475.44
2017-10-04T06:10:33.834Z,101471.30
2017-10-04T06:13:08.358Z,101472.66
2017-10-04T06:15:43.093Z,101465.52
2017-10-04T06:18:17.698Z,101470.27
2017-10-04T06:20:53.390Z,101463.91
2017-10-04T06:23:28.073Z,101463.83
2017-10-04T06:26:02.953Z,101464.95
2017-10-04T06:28:37.602Z,101461.38
2017-10-04T06:31:12.285Z,101464.47
2017-10-04T06:33:47.066Z,101471.37
2017-10-04T06:36:21.794Z,101468.63
2017-10-04T06:38:56.474Z,101471.92
2017-10-04T06:41:31.221Z,101476.78
2017-10-04T06:44:05.708Z,101473.36
2017-10-04T06:46:40.431Z,101478.23
2017-10-04T06:49:15.065Z,101476.29
2017-10-04T06:51:49.914Z,101456.14
2017-10-04T06:54:24.594Z,101455.67
2017-10-04T06:56:59.194Z,101456.33
2017-10-04T06:59:33.748Z,101458.55
2017-10-04T07:02:08.454Z,101445.95
2017-10-04T07:04:43.234Z,101450.69
2017-10-04T07:07:18.925Z,101452.27
2017-10-04T07:09:53.589Z,101443.52
2017-10-04T07:12:28.266Z,101434.47
2017-10-04T07:15:02.870Z,101433.05
2017-10-04T07:17:37.545Z,101422.35
2017-10-04T07:20:12.025Z,101422.95
2017-10-04T07:22:46.770Z,101417.77
2017-10-04T07:25:21.457Z,101412.34
2017-10-04T07:27:56.632Z,101415.33
2017-10-04T07:30:31.691Z,101415.42
2017-10-04T07:33:06.377Z,101418.70
2017-10-04T07:35:41.069Z,101410.98
2017-10-04T07:38:15.958Z,101412.91
2017-10-04T07:40:50.661Z,101390.56
2017-10-04T07:43:25.402Z,101386.05
2017-10-04T07:45:59.858Z,101409.41
2017-10-04T07:48:34.586Z,101404.04
2017-10-04T07:51:09.218Z,101417.28
2017-10-04T07:53:43.770Z,101412.76
2017-10-04T07:56:18.217Z,101428.15
2017-10-04T07:58:53.078Z,101427.48
2017-10-04T08:01:27.854Z,101424.59
2017-10-04T08:04:02.709Z,101444.47
2017-10-04T08:06:37.385Z,101447.42
2017-10-04T08:09:12.117Z,101453.45
2017-10-04T08:11:46.797Z,101451.92
2017-10-04T08:14:21.449Z,101455.20
2017-10-04T08:16:56.022Z,101454.78
2017-10-04T08:19:30.783Z,101441.77
2017-10-04T08:22:05.330Z,101435.26
2017-10-04T08:24:39.877Z,101437.88
2017-10-04T08:27:14.861Z,101424.89
2017-10-04T08:29:49.566Z,101425.88
2017-10-04T08:32:24.021Z,101417.73
2017-10-04T08:34:58.793Z,101414.50
2017-10-04T08:37:33.500Z,101418.58
2017-10-04T08:40:08.211Z,101420.06
2017-10-04T08:42:43.085Z,101441.25
2017-10-04T08:57:08.919Z,101433.39
2017-10-04T08:59:43.676Z,101430.67
2017-10-04T09:02:18.301Z,101409.23
2017-10-04T09:05:04.040Z,101401.67
2017-10-04T09:07:38.679Z,101426.34
2017-10-04T09:10:13.403Z,101424.00
2017-10-04T09:12:48.173Z,101411.31
2017-10-04T09:15:22.959Z,101430.41
2017-10-04T09:17:57.791Z,101415.50
2017-10-04T09:20:32.616Z,101410.94
2017-10-04T09:23:07.356Z,101406.22
2017-10-04T09:25:42.063Z,101396.13
2017-10-04T09:28:16.878Z,101384.82
2017-10-04T09:30:52.135Z,101371.39
2017-10-04T09:33:27.484Z,101392.00
2017-10-04T09:36:02.260Z,101397.38
2017-10-04T09:38:36.873Z,101387.64
2017-10-04T09:41:11.776Z,101393.84
2017-10-04T09:43:46.381Z,101385.18
2017-10-04T09:46:21.192Z,101393.91
2017-10-04T09:48:55.696Z,101383.20
2017-10-04T09:51:30.508Z,101383.03
2017-10-04T09:54:05.343Z,101381.66
2017-10-04T09:56:39.988Z,101356.84
2017-10-04T09:59:15.473Z,101354.59
2017-10-04T10:01:50.253Z,101375.51
2017-10-04T10:04:24.975Z,101372.00
2017-10-04T10:06:59.736Z,101374.39
2017-10-04T10:09:34.384Z,101369.94
2017-10-04T10:12:10.181Z,101372.13
2017-10-04T10:14:44.832Z,101379.66
2017-10-04T10:17:19.620Z,101367.14
2017-10-04T10:19:54.347Z,101375.27
2017-10-04T10:22:29.007Z,101384.05
2017-10-04T10:25:03.599Z,101375.75
2017-10-04T10:27:38.460Z,101363.33
2017-10-04T10:30:13.218Z,101370.77
2017-10-04T10:32:47.999Z,101367.75
2017-10-04T10:35:22.700Z,101372.12
2017-10-04T10:37:57.496Z,101382.16
2017-10-04T10:40:32.132Z,101377.34
2017-10-04T10:43:06.956Z,101374.19
2017-10-04T10:45:41.501Z,101382.06
2017-10-04T10:48:16.326Z,101380.70
2017-10-04T10:50:51.068Z,101396.08
2017-10-04T10:53:25.812Z,101387.48
2017-10-04T10:56:00.450Z,101393.37
2017-10-04T10:58:35.232Z,101396.21
2017-10-04T11:01:09.945Z,101393.66
2017-10-04T11:03:44.296Z,101396.61
2017-10-04T11:06:19.068Z,101377.53
2017-10-04T11:08:53.817Z,101373.33
2017-10-04T11:11:28.500Z,101374.41
2017-10-04T11:14:03.349Z,101365.86
2017-10-04T11:16:37.919Z,101374.55
2017-10-04T11:19:12.556Z,101369.13
2017-10-04T11:21:47.239Z,101362.09
2017-10-04T11:24:21.855Z,101358.58
2017-10-04T11:26:56.564Z,101363.98
2017-10-04T11:29:31.232Z,101347.51
2017-10-04T11:32:05.664Z,101350.91
2017-10-04T11:34:40.308Z,101340.29
2017-10-04T11:37:15.024Z,101337.72
2017-10-04T11:39:49.674Z,101324.34
2017-10-04T11:42:24.450Z,101320.81
2017-10-04T11:44:59.296Z,101319.75
2017-10-04T11:47:34.017Z,101324.48
2017-10-04T11:50:08.745Z,101324.34
2017-10-04T11:52:43.433Z,101324.52
2017-10-04T11:55:18.152Z,101326.28
2017-10-04T11:57:52.824Z,101316.97
2017-10-04T12:00:27.615Z,101323.27
2017-10-04T12:03:02.288Z,101328.91
2017-10-04T12:05:37.019Z,101316.71
2017-10-04T12:08:11.844Z,101313.58
2017-10-04T12:10:46.612Z,101314.16
2017-10-04T12:13:21.157Z,101301.77
2017-10-04T12:15:55.967Z,101298.79
2017-10-04T12:18:30.508Z,101288.42
2017-10-04T12:21:05.143Z,101281.78
2017-10-04T12:23:39.817Z,101293.24
2017-10-04T12:26:14.360Z,101291.58
2017-10-04T12:28:48.824Z,101289.41
2017-10-04T12:31:23.517Z,101289.41
2017-10-04T12:33:58.200Z,101296.47
2017-10-04T12:36:32.968Z,101297.08
2017-10-04T12:39:07.453Z,101282.56
2017-10-04T12:41:42.178Z,101284.73
2017-10-04T12:44:16.811Z,101297.00
2017-10-04T12:46:51.368Z,101298.06
2017-10-04T12:49:26.928Z,101282.25
2017-10-04T12:52:01.561Z,101287.84
2017-10-04T12:54:36.308Z,101286.02
2017-10-04T12:57:10.981Z,101260.19
2017-10-04T12:59:45.740Z,101265.77
2017-10-04T13:02:20.483Z,101263.74
2017-10-04T13:04:55.116Z,101259.16
2017-10-04T13:07:30.000Z,101249.47
2017-10-04T13:10:04.728Z,101239.61
2017-10-04T13:12:40.535Z,101255.31
2017-10-04T13:15:15.193Z,101244.86
2017-10-04T13:17:49.736Z,101246.82
2017-10-04T13:20:24.231Z,101251.00
2017-10-04T13:22:58.920Z,101244.62
2017-10-04T13:25:33.434Z,101244.41
2017-10-04T13:28:08.001Z,101251.48
2017-10-04T13:30:42.723Z,101243.95
2017-10-04T13:33:17.110Z,101247.06
2017-10-04T13:35:51.826Z,101220.60
2017-10-04T13:38:27.119Z,101228.96
2017-10-04T13:41:01.897Z,101235.70
2017-10-04T13:43:36.624Z,101239.08
2017-10-04T13:46:11.131Z,101250.50
2017-10-04T13:48:45.658Z,101246.87
2017-10-04T13:51:20.281Z,101243.56
2017-10-04T13:53:55.157Z,101240.70
2017-10-04T13:56:29.927Z,101247.86
2017-10-04T13:59:04.710Z,101243.25
2017-10-04T14:01:39.492Z,101222.94
2017-10-04T14:04:14.016Z,101221.33
2017-10-04T14:06:48.752Z,101221.23
2017-10-04T14:09:23.384Z,101225.75
2017-10-04T14:11:57.905Z,101222.82
2017-10-04T14:14:32.665Z,101192.38
2017-10-04T14:17:07.375Z,101187.52
2017-10-04T14:19:42.094Z,101190.91
2017-10-04T14:22:22.189Z,101189.50
2017-10-04T14:24:56.656Z,101189.85
2017-10-04T14:27:31.195Z,101186.98
2017-10-04T14:30:05.956Z,101185.23
2017-10-04T14:32:40.572Z,101179.22
2017-10-04T14:35:15.367Z,101180.86
2017-10-04T14:37:50.056Z,101186.08
2017-10-04T14:40:24.732Z,101190.28
2017-10-04T14:42:59.378Z,101194.56
2017-10-04T14:45:33.980Z,101189.05
2017-10-04T14:48:09.543Z,101184.34
2017-10-04T14:50:44.073Z,101180.18
2017-10-04T14:53:18.727Z,101180.52
2017-10-04T14:55:53.299Z,101171.44
2017-10-04T14:58:28.103Z,101168.38
2017-10-04T15:01:02.848Z,101163.75
2017-10-04T15:03:38.529Z,101157.57
2017-10-04T15:06:13.191Z,101163.15
2017-10-04T15:08:47.903Z,101155.32
2017-10-04T15:11:22.491Z,101149.48
2017-10-04T15:13:57.440Z,101143.70
2017-10-04T15:16:31.947Z,101144.98
2017-10-04T15:19:06.618Z,101135.48
2017-10-04T15:21:41.331Z,101142.31
2017-10-04T15:24:15.968Z,101151.33
2017-10-04T15:26:50.391Z,101138.91
2017-10-04T15:29:24.963Z,101142.44
2017-10-04T15:31:59.808Z,101144.32
2017-10-04T15:34:34.489Z,101136.00
2017-10-04T15:37:09.199Z,101130.67
2017-10-04T15:39:43.665Z,101133.42
2017-10-04T15:42:18.663Z,101129.36
2017-10-04T15:44:53.497Z,101130.16
2017-10-04T15:47:28.090Z,101124.89
2017-10-04T15:50:02.748Z,101113.27
2017-10-04T15:52:37.423Z,101111.97
2017-10-04T15:55:11.904Z,101127.23
2017-10-04T15:57:46.609Z,101136.80
2017-10-04T16:00:21.352Z,101146.13
2017-10-04T16:02:56.126Z,101135.81
2017-10-04T16:05:30.958Z,101140.03
2017-10-04T16:08:05.516Z,101130.87
2017-10-04T16:10:40.276Z,101132.44
2017-10-04T16:13:15.110Z,101141.16
2017-10-04T16:15:49.834Z,101124.16
2017-10-04T16:18:24.634Z,101100.61
2017-10-04T16:20:59.396Z,101093.91
2017-10-04T16:23:34.043Z,101111.46
2017-10-04T16:26:08.717Z,101117.27
2017-10-04T16:28:43.272Z,101112.20
2017-10-04T16:31:17.905Z,101115.45
2017-10-04T16:33:52.683Z,101098.61
2017-10-04T16:36:27.331Z,101097.62
2017-10-04T16:39:01.751Z,101082.20
2017-10-04T16:41:36.268Z,101082.59
2017-10-04T16:44:10.903Z,101112.08
2017-10-04T16:46:45.610Z,101099.37
2017-10-04T16:49:20.277Z,101107.70
2017-10-04T16:51:54.828Z,101098.31
2017-10-04T16:54:29.357Z,101100.58
2017-10-04T16:57:04.163Z,101098.63
2017-10-04T16:59:38.763Z,101090.86
2017-10-04T17:02:13.592Z,101077.25
2017-10-04T17:04:48.228Z,101079.29
2017-10-04T17:07:22.873Z,101087.78
2017-10-04T17:09:57.458Z,101098.70
2017-10-04T17:12:32.134Z,101093.16
2017-10-04T17:15:06.828Z,101094.56
2017-10-04T17:17:41.560Z,101082.69
2017-10-04T17:20:16.332Z,101079.30
2017-10-04T17:22:52.412Z,101059.15
2017-10-04T17:25:27.809Z,101066.16
2017-10-04T17:28:02.335Z,101056.28
2017-10-04T17:30:37.096Z,101061.51
2017-10-04T17:33:11.677Z,101076.78
2017-10-04T17:35:46.521Z,101068.41
2017-10-04T17:38:21.099Z,101075.25
2017-10-04T17:40:55.774Z,101076.78
2017-10-04T17:43:30.255Z,101084.88
2017-10-04T17:46:05.000Z,101081.41
2017-10-04T17:48:39.856Z,101081.05
2017-10-04T17:51:15.218Z,101081.10
2017-10-04T17:53:49.816Z,101058.36
2017-10-04T17:56:24.581Z,101060.06
2017-10-04T17:58:59.327Z,101060.02
2017-10-04T18:01:33.997Z,101075.84
2017-10-04T18:04:08.635Z,101070.89
2017-10-04T18:06:43.296Z,101070.67
2017-10-04T18:09:18.035Z,101076.45
2017-10-04T18:11:53.727Z,101067.91
2017-10-04T18:14:28.438Z,101076.70
2017-10-04T18:17:04.654Z,101084.95
2017-10-04T18:19:39.731Z,101082.70
2017-10-04T18:22:14.548Z,101090.30
2017-10-04T18:24:49.379Z,101090.36
2017-10-04T18:27:24.152Z,101084.51
2017-10-04T18:29:58.588Z,101097.36
2017-10-04T18:32:33.378Z,101097.58
2017-10-04T18:35:08.019Z,101088.80
2017-10-04T18:37:42.794Z,101084.66
2017-10-04T18:40:17.284Z,101090.68
2017-10-04T18:42:52.026Z,101098.13
2017-10-04T18:45:26.512Z,101069.79
2017-10-04T18:48:01.088Z,101074.09
2017-10-04T18:50:35.722Z,101062.27
2017-10-04T18:53:10.391Z,101047.02
2017-10-04T18:55:45.023Z,101053.84
2017-10-04T18:58:19.776Z,101036.58
2017-10-04T19:00:54.411Z,101055.12
2017-10-04T19:03:29.127Z,101060.09
2017-10-04T19:06:03.655Z,101072.11
2017-10-04T19:08:38.276Z,101079.34
2017-10-04T19:11:12.972Z,101075.49
2017-10-04T19:13:47.658Z,101047.61
2017-10-04T19:16:22.428Z,101054.32
2017-10-04T19:18:57.322Z,101050.71
2017-10-04T19:21:31.893Z,101060.48
2017-10-04T19:24:06.607Z,101081.58
2017-10-04T19:26:41.231Z,101050.98
2017-10-04T19:29:15.820Z,101049.00
2017-10-04T19:31:50.365Z,101064.24
2017-10-04T19:34:25.271Z,101048.37
2017-10-04T19:36:59.721Z,101065.00
2017-10-04T19:39:34.456Z,101053.63
2017-10-04T19:42:09.107Z,101056.73
2017-10-04T19:44:43.693Z,101036.19
2017-10-04T19:47:18.248Z,101027.88
2017-10-04T19:52:51.579Z,101021.85
2017-10-04T19:55:26.951Z,101021.42
2017-10-04T19:58:01.677Z,101027.20
2017-10-04T20:00:36.313Z,101028.70
2017-10-04T20:03:11.108Z,101027.34
2017-10-04T20:05:45.801Z,101026.06
2017-10-04T20:08:20.245Z,101031.70
2017-10-04T20:10:55.500Z,101035.45
2017-10-04T20:13:30.603Z,101049.00
2017-10-04T20:16:06.358Z,101037.17
2017-10-04T20:18:41.007Z,101033.22
2017-10-04T20:21:15.659Z,101035.23
2017-10-04T20:23:50.359Z,101032.98
2017-10-04T20:26:25.020Z,101035.98
2017-10-04T20:28:59.643Z,101020.89
2017-10-04T20:31:34.349Z,101020.44
2017-10-04T20:34:09.071Z,101046.87
2017-10-04T20:36:43.823Z,101061.95
2017-10-04T20:39:18.332Z,101036.66
2017-10-04T20:41:53.109Z,101041.70
2017-10-04T20:44:27.893Z,101033.52
2017-10-04T20:47:02.539Z,101040.27
2017-10-04T20:49:37.374Z,101036.30
2017-10-04T20:52:12.167Z,101022.03
2017-10-04T20:54:46.894Z,101054.61
2017-10-04T20:57:21.351Z,101034.34
2017-10-04T20:59:56.380Z,101033.12
2017-10-04T21:02:30.788Z,101013.69
2017-10-04T21:05:05.711Z,101004.54
2017-10-04T21:07:40.537Z,101002.77
2017-10-04T21:10:14.955Z,100991.45
2017-10-04T21:12:49.820Z,100999.34
2017-10-04T21:15:24.685Z,100992.87
2017-10-04T21:17:59.305Z,101011.19
2017-10-04T21:20:34.483Z,100997.78
2017-10-04T21:23:09.331Z,100999.93
2017-10-04T21:25:44.991Z,101001.12
2017-10-04T21:28:19.588Z,101012.86
2017-10-04T21:30:54.555Z,100995.04
2017-10-04T21:33:29.157Z,101001.98
2017-10-04T21:36:03.779Z,100988.98
2017-10-04T21:38:38.661Z,100987.09
2017-10-04T21:41:13.765Z,100982.87
2017-10-04T21:43:48.402Z,100987.76
2017-10-04T21:46:23.129Z,100979.79
2017-10-04T21:48:58.034Z,100979.34
2017-10-04T21:51:32.799Z,100978.13
2017-10-04T21:54:07.679Z,100983.92
2017-10-04T21:56:42.145Z,100979.07
2017-10-04T21:59:16.891Z,100974.98
2017-10-04T22:01:51.889Z,100980.84
2017-10-04T22:04:26.468Z,100977.33
2017-10-04T22:07:01.149Z,100973.94
2017-10-04T22:09:36.037Z,100970.80
2017-10-04T22:12:10.880Z,100959.67
2017-10-04T22:14:45.628Z,100946.98
2017-10-04T22:17:20.386Z,100941.86
2017-10-04T22:19:55.103Z,100939.91
2017-10-04T22:22:29.645Z,100937.50
2017-10-04T22:25:05.044Z,100931.50
2017-10-04T22:27:39.799Z,100940.28
2017-10-04T22:30:14.641Z,100939.24
2017-10-04T22:32:49.452Z,100932.13
2017-10-04T22:35:24.408Z,100934.59
2017-10-04T22:37:59.253Z,100938.45
2017-10-04T22:40:33.995Z,100929.44
2017-10-04T22:43:08.615Z,100914.80
2017-10-04T22:45:43.527Z,100910.31
2017-10-04T22:48:18.452Z,100912.33
2017-10-04T22:50:53.171Z,100909.45
2017-10-04T22:53:28.041Z,100913.59
2017-10-04T22:56:04.337Z,100916.82
2017-10-04T22:58:39.621Z,100905.05
2017-10-04T23:01:14.468Z,100894.94
2017-10-04T23:03:49.165Z,100898.61
2017-10-04T23:06:23.824Z,100887.13
2017-10-04T23:08:58.629Z,100856.33
2017-10-04T23:11:33.418Z,100842.98
2017-10-04T23:14:08.037Z,100845.98
2017-10-04T23:16:43.153Z,100855.58
2017-10-04T23:19:17.532Z,100848.33
2017-10-04T23:21:52.496Z,100838.06
2017-10-04T23:24:27.328Z,100815.54
2017-10-04T23:27:02.280Z,100832.05
2017-10-04T23:29:37.389Z,100841.73
2017-10-04T23:32:12.363Z,100844.66
2017-10-04T23:34:47.404Z,100840.58
2017-10-04T23:37:22.064Z,100839.23
2017-10-04T23:39:56.914Z,100828.96
2017-10-04T23:42:31.904Z,100822.72
2017-10-04T23:45:06.690Z,100802.48
2017-10-04T23:47:41.632Z,100793.00
2017-10-04T23:50:16.408Z,100811.12
2017-10-04T23:52:51.383Z,100804.58
2017-10-04T23:55:26.245Z,100790.84
2017-10-04T23:58:01.089Z,100781.47
